sensor_id;sensor_type;location;lat;lon;timestamp;pressure;altitude;pressure_sealevel;temperature;humidity
78407;BME280;67692;51.074;-1.790;2024-02-15T00:02:07;100660.75;;;12.17;100.00
78407;BME280;67692;51.074;-1.790;2024-02-15T00:04:36;100658.03;;;12.18;100.00
78407;BME280;67692;51.074;-1.790;2024-02-15T00:07:02;100654.75;;;12.16;100.00
78407;BME280;67692;51.074;-1.790;2024-02-15T00:09:29;100647.78;;;12.17;100.00
78407;BME280;67692;51.074;-1.790;2024-02-15T00:11:56;100636.78;;;12.13;100.00
78407;BME280;67692;51.074;-1.790;2024-02-15T00:14:25;100647.91;;;12.15;100.00
78407;BME280;67692;51.074;-1.790;2024-02-15T00:16:51;100646.97;;;12.16;100.00
78407;BME280;67692;51.074;-1.790;2024-02-15T00:19:18;100654.84;;;12.15;100.00
78407;BME280;67692;51.074;-1.790;2024-02-15T00:21:46;100658.16;;;12.17;100.00
78407;BME280;67692;51.074;-1.790;2024-02-15T00:24:13;100662.53;;;12.16;100.00
78407;BME280;67692;51.074;-1.790;2024-02-15T00:26:40;100666.78;;;12.17;100.00
78407;BME280;67692;51.074;-1.790;2024-02-15T00:29:07;100654.84;;;12.15;100.00
78407;BME280;67692;51.074;-1.790;2024-02-15T00:31:33;100656.50;;;12.16;100.00
78407;BME280;67692;51.074;-1.790;2024-02-15T00:34:01;100650.38;;;12.17;100.00
78407;BME280;67692;51.074;-1.790;2024-02-15T00:36:27;100648.38;;;12.20;100.00
78407;BME280;67692;51.074;-1.790;2024-02-15T00:38:56;100652.63;;;12.21;100.00
78407;BME280;67692;51.074;-1.790;2024-02-15T00:41:22;100650.13;;;12.20;100.00
78407;BME280;67692;51.074;-1.790;2024-02-15T00:43:49;100646.47;;;12.23;100.00
78407;BME280;67692;51.074;-1.790;2024-02-15T00:46:16;100652.38;;;12.25;100.00
78407;BME280;67692;51.074;-1.790;2024-02-15T00:48:43;100654.84;;;12.26;100.00
78407;BME280;67692;51.074;-1.790;2024-02-15T00:51:10;100655.78;;;12.25;100.00
78407;BME280;67692;51.074;-1.790;2024-02-15T00:53:37;100653.06;;;12.27;100.00
78407;BME280;67692;51.074;-1.790;2024-02-15T00:56:05;100646.13;;;12.27;100.00
78407;BME280;67692;51.074;-1.790;2024-02-15T00:58:32;100641.63;;;12.29;100.00
78407;BME280;67692;51.074;-1.790;2024-02-15T01:00:59;100645.78;;;12.32;100.00
78407;BME280;67692;51.074;-1.790;2024-02-15T01:03:26;100644.84;;;12.33;100.00
78407;BME280;67692;51.074;-1.790;2024-02-15T01:05:52;100638.81;;;12.32;100.00
78407;BME280;67692;51.074;-1.790;2024-02-15T01:08:19;100643.88;;;12.34;100.00
78407;BME280;67692;51.074;-1.790;2024-02-15T01:10:46;100638.69;;;12.34;100.00
78407;BME280;67692;51.074;-1.790;2024-02-15T01:13:14;100622.28;;;12.33;100.00
78407;BME280;67692;51.074;-1.790;2024-02-15T01:15:41;100623.13;;;12.34;100.00
78407;BME280;67692;51.074;-1.790;2024-02-15T01:18:08;100617.34;;;12.30;100.00
78407;BME280;67692;51.074;-1.790;2024-02-15T01:20:34;100614.75;;;12.30;100.00
78407;BME280;67692;51.074;-1.790;2024-02-15T01:23:01;100615.56;;;12.31;100.00
78407;BME280;67692;51.074;-1.790;2024-02-15T01:25:28;100606.13;;;12.30;100.00
78407;BME280;67692;51.074;-1.790;2024-02-15T01:27:55;100608.59;;;12.31;100.00
78407;BME280;67692;51.074;-1.790;2024-02-15T01:30:23;100608.38;;;12.34;100.00
78407;BME280;67692;51.074;-1.790;2024-02-15T01:32:50;100607.53;;;12.34;100.00
78407;BME280;67692;51.074;-1.790;2024-02-15T01:35:16;100607.41;;;12.35;100.00
78407;BME280;67692;51.074;-1.790;2024-02-15T01:37:44;100599.25;;;12.29;100.00
78407;BME280;67692;51.074;-1.790;2024-02-15T01:40:11;100612.59;;;12.35;100.00
78407;BME280;67692;51.074;-1.790;2024-02-15T01:42:38;100616.03;;;12.36;100.00
78407;BME280;67692;51.074;-1.790;2024-02-15T01:45:05;100610.84;;;12.36;100.00
78407;BME280;67692;51.074;-1.790;2024-02-15T01:47:34;100610.84;;;12.36;100.00
78407;BME280;67692;51.074;-1.790;2024-02-15T01:50:00;100607.28;;;12.37;100.00
78407;BME280;67692;51.074;-1.790;2024-02-15T01:52:28;100604.69;;;12.37;100.00
78407;BME280;67692;51.074;-1.790;2024-02-15T01:54:55;100611.78;;;12.35;100.00
78407;BME280;67692;51.074;-1.790;2024-02-15T01:57:23;100604.00;;;12.35;100.00
78407;BME280;67692;51.074;-1.790;2024-02-15T01:59:50;100600.56;;;12.34;100.00
78407;BME280;67692;51.074;-1.790;2024-02-15T02:02:18;100601.16;;;12.38;100.00
78407;BME280;67692;51.074;-1.790;2024-02-15T02:04:48;100601.72;;;12.41;100.00
78407;BME280;67692;51.074;-1.790;2024-02-15T02:07:15;100605.41;;;12.39;100.00
78407;BME280;67692;51.074;-1.790;2024-02-15T02:09:41;100597.59;;;12.39;100.00
78407;BME280;67692;51.074;-1.790;2024-02-15T02:12:09;100593.50;;;12.36;100.00
78407;BME280;67692;51.074;-1.790;2024-02-15T02:14:35;100593.50;;;12.36;100.00
78407;BME280;67692;51.074;-1.790;2024-02-15T02:17:12;100582.28;;;12.36;100.00
78407;BME280;67692;51.074;-1.790;2024-02-15T02:19:39;100582.28;;;12.36;100.00
78407;BME280;67692;51.074;-1.790;2024-02-15T02:22:09;100578.03;;;12.35;100.00
78407;BME280;67692;51.074;-1.790;2024-02-15T02:24:43;100566.00;;;12.34;100.00
78407;BME280;67692;51.074;-1.790;2024-02-15T02:27:13;100569.41;;;12.34;100.00
78407;BME280;67692;51.074;-1.790;2024-02-15T02:29:42;100570.47;;;12.32;100.00
78407;BME280;67692;51.074;-1.790;2024-02-15T02:32:10;100560.81;;;12.34;100.00
78407;BME280;67692;51.074;-1.790;2024-02-15T02:34:37;100557.25;;;12.35;100.00
78407;BME280;67692;51.074;-1.790;2024-02-15T02:37:04;100560.56;;;12.37;100.00
78407;BME280;67692;51.074;-1.790;2024-02-15T02:39:33;100566.56;;;12.37;100.00
78407;BME280;67692;51.074;-1.790;2024-02-15T02:42:00;100567.41;;;12.38;100.00
78407;BME280;67692;51.074;-1.790;2024-02-15T02:44:28;100563.84;;;12.39;100.00
78407;BME280;67692;51.074;-1.790;2024-02-15T02:46:54;100563.59;;;12.42;100.00
78407;BME280;67692;51.074;-1.790;2024-02-15T02:49:21;100561.72;;;12.44;100.00
78407;BME280;67692;51.074;-1.790;2024-02-15T02:51:48;100562.66;;;12.43;100.00
78407;BME280;67692;51.074;-1.790;2024-02-15T02:54:15;100551.31;;;12.44;100.00
78407;BME280;67692;51.074;-1.790;2024-02-15T02:56:41;100550.41;;;12.45;100.00
78407;BME280;67692;51.074;-1.790;2024-02-15T02:59:09;100547.56;;;12.48;100.00
78407;BME280;67692;51.074;-1.790;2024-02-15T03:01:37;100556.28;;;12.47;100.00
78407;BME280;67692;51.074;-1.790;2024-02-15T03:04:05;100559.59;;;12.49;100.00
78407;BME280;67692;51.074;-1.790;2024-02-15T03:06:31;100550.72;;;12.51;100.00
78407;BME280;67692;51.074;-1.790;2024-02-15T03:08:58;100550.97;;;12.48;100.00
78407;BME280;67692;51.074;-1.790;2024-02-15T03:11:25;100536.91;;;12.51;100.00
78407;BME280;67692;51.074;-1.790;2024-02-15T03:13:51;100546.47;;;12.50;100.00
78407;BME280;67692;51.074;-1.790;2024-02-15T03:16:21;100540.72;;;12.47;100.00
78407;BME280;67692;51.074;-1.790;2024-02-15T03:18:51;100545.66;;;12.50;100.00
78407;BME280;67692;51.074;-1.790;2024-02-15T03:21:19;100543.06;;;12.50;100.00
78407;BME280;67692;51.074;-1.790;2024-02-15T03:23:45;100549.66;;;12.54;100.00
78407;BME280;67692;51.074;-1.790;2024-02-15T03:26:12;100548.69;;;12.55;100.00
78407;BME280;67692;51.074;-1.790;2024-02-15T03:28:39;100548.00;;;12.53;100.00
78407;BME280;67692;51.074;-1.790;2024-02-15T03:31:07;100548.00;;;12.53;100.00
78407;BME280;67692;51.074;-1.790;2024-02-15T03:33:35;100536.66;;;12.54;100.00
78407;BME280;67692;51.074;-1.790;2024-02-15T03:36:04;100533.13;;;12.55;100.00
78407;BME280;67692;51.074;-1.790;2024-02-15T03:38:31;100533.13;;;12.55;100.00
78407;BME280;67692;51.074;-1.790;2024-02-15T03:40:58;100530.41;;;12.57;100.00
78407;BME280;67692;51.074;-1.790;2024-02-15T03:43:25;100527.69;;;12.58;100.00
78407;BME280;67692;51.074;-1.790;2024-02-15T03:45:51;100527.69;;;12.58;100.00
78407;BME280;67692;51.074;-1.790;2024-02-15T03:48:18;100531.81;;;12.61;100.00
78407;BME280;67692;51.074;-1.790;2024-02-15T03:50:45;100512.00;;;12.60;100.00
78407;BME280;67692;51.074;-1.790;2024-02-15T03:53:14;100506.53;;;12.63;100.00
78407;BME280;67692;51.074;-1.790;2024-02-15T03:55:41;100511.63;;;12.64;100.00
78407;BME280;67692;51.074;-1.790;2024-02-15T03:58:08;100509.72;;;12.66;100.00
78407;BME280;67692;51.074;-1.790;2024-02-15T04:00:35;100513.72;;;12.70;100.00
78407;BME280;67692;51.074;-1.790;2024-02-15T04:03:02;100508.38;;;12.72;100.00
78407;BME280;67692;51.074;-1.790;2024-02-15T04:05:30;100505.09;;;12.70;100.00
78407;BME280;67692;51.074;-1.790;2024-02-15T04:07:58;100505.91;;;12.70;100.00
78407;BME280;67692;51.074;-1.790;2024-02-15T04:10:29;100505.69;;;12.73;100.00
78407;BME280;67692;51.074;-1.790;2024-02-15T04:12:55;100507.34;;;12.74;100.00
78407;BME280;67692;51.074;-1.790;2024-02-15T04:15:23;100504.84;;;12.73;100.00
78407;BME280;67692;51.074;-1.790;2024-02-15T04:17:50;100506.25;;;12.77;100.00
78407;BME280;67692;51.074;-1.790;2024-02-15T04:20:21;100503.28;;;12.81;100.00
78407;BME280;67692;51.074;-1.790;2024-02-15T04:22:48;100498.34;;;12.78;100.00
78407;BME280;67692;51.074;-1.790;2024-02-15T04:25:15;100512.84;;;12.81;100.00
78407;BME280;67692;51.074;-1.790;2024-02-15T04:27:46;100502.44;;;12.81;100.00
78407;BME280;67692;51.074;-1.790;2024-02-15T04:30:13;100500.69;;;12.81;100.00
78407;BME280;67692;51.074;-1.790;2024-02-15T04:32:40;100505.06;;;12.81;100.00
78407;BME280;67692;51.074;-1.790;2024-02-15T04:35:07;100502.00;;;12.76;100.00
78407;BME280;67692;51.074;-1.790;2024-02-15T04:37:35;100505.56;;;12.75;100.00
78407;BME280;67692;51.074;-1.790;2024-02-15T04:40:03;100498.13;;;12.70;100.00
78407;BME280;67692;51.074;-1.790;2024-02-15T04:42:33;100504.84;;;12.73;100.00
78407;BME280;67692;51.074;-1.790;2024-02-15T04:45:04;100510.88;;;12.73;100.00
78407;BME280;67692;51.074;-1.790;2024-02-15T04:47:35;100508.03;;;12.76;100.00
78407;BME280;67692;51.074;-1.790;2024-02-15T04:50:01;100510.88;;;12.73;100.00
78407;BME280;67692;51.074;-1.790;2024-02-15T04:52:31;100512.75;;;12.71;100.00
78407;BME280;67692;51.074;-1.790;2024-02-15T04:54:57;100509.34;;;12.71;100.00
78407;BME280;67692;51.074;-1.790;2024-02-15T04:57:24;100511.09;;;12.70;100.00
78407;BME280;67692;51.074;-1.790;2024-02-15T04:59:53;100516.31;;;12.70;100.00
78407;BME280;67692;51.074;-1.790;2024-02-15T05:02:21;100522.84;;;12.65;100.00
78407;BME280;67692;51.074;-1.790;2024-02-15T05:04:49;100515.28;;;12.62;100.00
78407;BME280;67692;51.074;-1.790;2024-02-15T05:07:20;100519.78;;;12.60;100.00
78407;BME280;67692;51.074;-1.790;2024-02-15T05:09:47;100515.53;;;12.59;100.00
78407;BME280;67692;51.074;-1.790;2024-02-15T05:12:22;100524.16;;;12.59;100.00
78407;BME280;67692;51.074;-1.790;2024-02-15T05:14:48;100514.81;;;12.57;100.00
78407;BME280;67692;51.074;-1.790;2024-02-15T05:17:15;100519.31;;;12.55;100.00
78407;BME280;67692;51.074;-1.790;2024-02-15T05:19:43;100517.78;;;12.52;100.00
78407;BME280;67692;51.074;-1.790;2024-02-15T05:22:11;100516.38;;;12.48;100.00
78407;BME280;67692;51.074;-1.790;2024-02-15T05:24:38;100515.81;;;12.44;100.00
78407;BME280;67692;51.074;-1.790;2024-02-15T05:27:05;100518.50;;;12.43;100.00
78407;BME280;67692;51.074;-1.790;2024-02-15T05:29:32;100520.91;;;12.35;100.00
78407;BME280;67692;51.074;-1.790;2024-02-15T05:31:59;100501.34;;;12.31;100.00
78407;BME280;67692;51.074;-1.790;2024-02-15T05:34:26;100501.91;;;12.23;100.00
78407;BME280;67692;51.074;-1.790;2024-02-15T05:36:55;100495.19;;;12.20;100.00
78407;BME280;67692;51.074;-1.790;2024-02-15T05:39:22;100492.03;;;12.17;100.00
78407;BME280;67692;51.074;-1.790;2024-02-15T05:41:50;100486.72;;;12.18;100.00
78407;BME280;67692;51.074;-1.790;2024-02-15T05:44:17;100488.69;;;12.15;100.00
78407;BME280;67692;51.074;-1.790;2024-02-15T05:46:46;100493.06;;;12.14;100.00
78407;BME280;67692;51.074;-1.790;2024-02-15T05:49:12;100492.75;;;12.08;100.00
78407;BME280;67692;51.074;-1.790;2024-02-15T05:51:43;100483.19;;;12.08;100.00
78407;BME280;67692;51.074;-1.790;2024-02-15T05:54:11;100485.06;;;12.06;100.00
78407;BME280;67692;51.074;-1.790;2024-02-15T05:56:38;100491.09;;;12.07;100.00
78407;BME280;67692;51.074;-1.790;2024-02-15T05:59:05;100495.47;;;12.06;100.00
78407;BME280;67692;51.074;-1.790;2024-02-15T06:01:35;100484.13;;;11.96;100.00
78407;BME280;67692;51.074;-1.790;2024-02-15T06:04:02;100486.84;;;11.95;100.00
78407;BME280;67692;51.074;-1.790;2024-02-15T06:06:33;100478.69;;;11.99;100.00
78407;BME280;67692;51.074;-1.790;2024-02-15T06:09:00;100470.22;;;11.97;100.00
78407;BME280;67692;51.074;-1.790;2024-02-15T06:11:29;100480.03;;;11.94;100.00
78407;BME280;67692;51.074;-1.790;2024-02-15T06:13:56;100472.81;;;11.86;100.00
78407;BME280;67692;51.074;-1.790;2024-02-15T06:16:22;100468.13;;;11.80;100.00
78407;BME280;67692;51.074;-1.790;2024-02-15T06:18:49;100460.09;;;11.83;100.00
78407;BME280;67692;51.074;-1.790;2024-02-15T06:21:16;100460.22;;;11.81;100.00
78407;BME280;67692;51.074;-1.790;2024-02-15T06:23:43;100461.38;;;11.66;100.00
78407;BME280;67692;51.074;-1.790;2024-02-15T06:26:10;100451.25;;;11.63;100.00
78407;BME280;67692;51.074;-1.790;2024-02-15T06:28:38;100459.59;;;11.55;100.00
78407;BME280;67692;51.074;-1.790;2024-02-15T06:31:22;100460.19;;;11.59;100.00
78407;BME280;67692;51.074;-1.790;2024-02-15T06:34:06;100463.94;;;11.55;100.00
78407;BME280;67692;51.074;-1.790;2024-02-15T06:36:52;100456.78;;;11.47;100.00
78407;BME280;67692;51.074;-1.790;2024-02-15T06:39:37;100461.59;;;11.41;100.00
78407;BME280;67692;51.074;-1.790;2024-02-15T06:42:11;100464.88;;;11.43;100.00
78407;BME280;67692;51.074;-1.790;2024-02-15T06:44:42;100465.94;;;11.40;100.00
78407;BME280;67692;51.074;-1.790;2024-02-15T06:47:09;100459.59;;;11.33;100.00
78407;BME280;67692;51.074;-1.790;2024-02-15T06:49:37;100462.19;;;11.33;100.00
78407;BME280;67692;51.074;-1.790;2024-02-15T06:52:05;100461.91;;;11.25;100.00
78407;BME280;67692;51.074;-1.790;2024-02-15T06:54:32;100459.94;;;11.17;100.00
78407;BME280;67692;51.074;-1.790;2024-02-15T06:57:01;100452.16;;;11.17;100.00
78407;BME280;67692;51.074;-1.790;2024-02-15T06:59:28;100445.63;;;11.12;100.00
78407;BME280;67692;51.074;-1.790;2024-02-15T07:01:56;100451.75;;;11.11;100.00
78407;BME280;67692;51.074;-1.790;2024-02-15T07:04:23;100449.28;;;11.09;100.00
78407;BME280;67692;51.074;-1.790;2024-02-15T07:06:51;100448.81;;;11.04;100.00
78407;BME280;67692;51.074;-1.790;2024-02-15T07:09:20;100446.59;;;10.99;100.00
78407;BME280;67692;51.074;-1.790;2024-02-15T07:11:48;100458.38;;;11.03;100.00
78407;BME280;67692;51.074;-1.790;2024-02-15T07:14:15;100447.19;;;11.03;100.00
78407;BME280;67692;51.074;-1.790;2024-02-15T07:16:45;100453.19;;;11.03;100.00
78407;BME280;67692;51.074;-1.790;2024-02-15T07:19:13;100445.16;;;11.07;100.00
78407;BME280;67692;51.074;-1.790;2024-02-15T07:21:40;100442.59;;;11.07;100.00
78407;BME280;67692;51.074;-1.790;2024-02-15T07:24:07;100440.09;;;11.05;100.00
78407;BME280;67692;51.074;-1.790;2024-02-15T07:26:35;100447.06;;;11.05;100.00
78407;BME280;67692;51.074;-1.790;2024-02-15T07:29:02;100449.41;;;11.08;100.00
78407;BME280;67692;51.074;-1.790;2024-02-15T07:31:31;100448.59;;;11.07;100.00
78407;BME280;67692;51.074;-1.790;2024-02-15T07:33:58;100447.28;;;11.13;100.00
78407;BME280;67692;51.074;-1.790;2024-02-15T07:36:26;100438.81;;;11.11;100.00
78407;BME280;67692;51.074;-1.790;2024-02-15T07:38:54;100429.97;;;11.02;100.00
78407;BME280;67692;51.074;-1.790;2024-02-15T07:41:23;100432.44;;;11.03;100.00
78407;BME280;67692;51.074;-1.790;2024-02-15T07:43:51;100428.53;;;10.98;100.00
78407;BME280;67692;51.074;-1.790;2024-02-15T07:46:19;100429.03;;;11.03;100.00
78407;BME280;67692;51.074;-1.790;2024-02-15T07:48:47;100429.28;;;11.00;100.00
78407;BME280;67692;51.074;-1.790;2024-02-15T07:51:14;100422.09;;;11.03;100.00
78407;BME280;67692;51.074;-1.790;2024-02-15T07:53:43;100416.91;;;11.03;100.00
78407;BME280;67692;51.074;-1.790;2024-02-15T07:56:09;100419.25;;;11.07;100.00
78407;BME280;67692;51.074;-1.790;2024-02-15T07:58:38;100419.97;;;11.09;100.00
78407;BME280;67692;51.074;-1.790;2024-02-15T08:01:06;100405.00;;;11.12;100.00
78407;BME280;67692;51.074;-1.790;2024-02-15T08:03:33;100401.00;;;11.08;100.00
78407;BME280;67692;51.074;-1.790;2024-02-15T08:06:00;100399.22;;;11.09;100.00
78407;BME280;67692;51.074;-1.790;2024-02-15T08:08:29;100401.94;;;11.07;100.00
78407;BME280;67692;51.074;-1.790;2024-02-15T08:10:57;100397.22;;;11.12;100.00
78407;BME280;67692;51.074;-1.790;2024-02-15T08:13:24;100389.34;;;11.14;100.00
78407;BME280;67692;51.074;-1.790;2024-02-15T08:15:54;100387.25;;;11.19;100.00
78407;BME280;67692;51.074;-1.790;2024-02-15T08:18:21;100394.91;;;11.20;100.00
78407;BME280;67692;51.074;-1.790;2024-02-15T08:20:48;100385.22;;;11.22;100.00
78407;BME280;67692;51.074;-1.790;2024-02-15T08:23:14;100390.16;;;11.25;100.00
78407;BME280;67692;51.074;-1.790;2024-02-15T08:25:41;100398.66;;;11.27;100.00
78407;BME280;67692;51.074;-1.790;2024-02-15T08:28:09;100399.16;;;11.32;100.00
78407;BME280;67692;51.074;-1.790;2024-02-15T08:30:36;100404.22;;;11.34;100.00
78407;BME280;67692;51.074;-1.790;2024-02-15T08:33:04;100401.84;;;11.42;100.00
78407;BME280;67692;51.074;-1.790;2024-02-15T08:35:30;100405.75;;;11.48;100.00
78407;BME280;67692;51.074;-1.790;2024-02-15T08:37:58;100397.47;;;11.54;100.00
78407;BME280;67692;51.074;-1.790;2024-02-15T08:40:24;100409.16;;;11.59;100.00
78407;BME280;67692;51.074;-1.790;2024-02-15T08:42:51;100394.06;;;11.65;100.00
78407;BME280;67692;51.074;-1.790;2024-02-15T08:45:19;100398.06;;;11.69;100.00
78407;BME280;67692;51.074;-1.790;2024-02-15T08:47:46;100386.50;;;11.73;100.00
78407;BME280;67692;51.074;-1.790;2024-02-15T08:50:15;100382.28;;;11.72;100.00
78407;BME280;67692;51.074;-1.790;2024-02-15T08:52:42;100379.56;;;11.73;100.00
78407;BME280;67692;51.074;-1.790;2024-02-15T08:55:10;100383.47;;;11.79;100.00
78407;BME280;67692;51.074;-1.790;2024-02-15T08:57:40;100372.22;;;11.78;100.00
78407;BME280;67692;51.074;-1.790;2024-02-15T09:00:10;100369.78;;;11.88;100.00
78407;BME280;67692;51.074;-1.790;2024-02-15T09:02:40;100359.84;;;11.93;100.00
78407;BME280;67692;51.074;-1.790;2024-02-15T09:05:07;100359.84;;;11.93;100.00
78407;BME280;67692;51.074;-1.790;2024-02-15T09:07:34;100351.34;;;11.91;100.00
78407;BME280;67692;51.074;-1.790;2024-02-15T09:10:02;100345.91;;;11.94;100.00
78407;BME280;67692;51.074;-1.790;2024-02-15T09:12:28;100348.13;;;11.99;100.00
78407;BME280;67692;51.074;-1.790;2024-02-15T09:14:56;100347.31;;;11.98;100.00
78407;BME280;67692;51.074;-1.790;2024-02-15T09:17:26;100346.25;;;12.01;100.00
78407;BME280;67692;51.074;-1.790;2024-02-15T09:19:54;100344.94;;;12.06;100.00
78407;BME280;67692;51.074;-1.790;2024-02-15T09:22:22;100341.13;;;12.10;100.00
78407;BME280;67692;51.074;-1.790;2024-02-15T09:24:49;100343.47;;;12.13;100.00
78407;BME280;67692;51.074;-1.790;2024-02-15T09:27:18;100332.28;;;12.13;100.00
78407;BME280;67692;51.074;-1.790;2024-02-15T09:29:46;100334.03;;;12.12;100.00
78407;BME280;67692;51.074;-1.790;2024-02-15T09:32:13;100334.44;;;12.08;100.00
78407;BME280;67692;51.074;-1.790;2024-02-15T09:34:40;100327.22;;;12.11;100.00
78407;BME280;67692;51.074;-1.790;2024-02-15T09:37:08;100334.88;;;12.13;100.00
78407;BME280;67692;51.074;-1.790;2024-02-15T09:39:36;100335.13;;;12.10;100.00
78407;BME280;67692;51.074;-1.790;2024-02-15T09:42:04;100338.41;;;12.12;100.00
78407;BME280;67692;51.074;-1.790;2024-02-15T09:44:30;100334.03;;;12.12;100.00
78407;BME280;67692;51.074;-1.790;2024-02-15T09:47:02;100333.22;;;12.12;100.00
78407;BME280;67692;51.074;-1.790;2024-02-15T09:49:34;100323.88;;;12.20;100.00
78407;BME280;67692;51.074;-1.790;2024-02-15T09:52:03;100312.03;;;12.28;100.00
78407;BME280;67692;51.074;-1.790;2024-02-15T09:54:32;100319.34;;;12.34;100.00
78407;BME280;67692;51.074;-1.790;2024-02-15T09:57:01;100321.41;;;12.40;100.00
78407;BME280;67692;51.074;-1.790;2024-02-15T09:59:29;100308.28;;;12.41;100.00
78407;BME280;67692;51.074;-1.790;2024-02-15T10:01:58;100305.69;;;12.41;100.00
78407;BME280;67692;51.074;-1.790;2024-02-15T10:04:25;100304.88;;;12.41;100.00
78407;BME280;67692;51.074;-1.790;2024-02-15T10:06:52;100298.72;;;12.42;100.00
78407;BME280;67692;51.074;-1.790;2024-02-15T10:09:28;100302.03;;;12.44;100.00
78407;BME280;67692;51.074;-1.790;2024-02-15T10:11:58;100290.31;;;12.49;100.00
78407;BME280;67692;51.074;-1.790;2024-02-15T10:14:25;100285.94;;;12.50;100.00
78407;BME280;67692;51.074;-1.790;2024-02-15T10:16:52;100291.56;;;12.55;100.00
78407;BME280;67692;51.074;-1.790;2024-02-15T10:19:19;100288.28;;;12.53;100.00
78407;BME280;67692;51.074;-1.790;2024-02-15T10:21:51;100287.06;;;12.57;100.00
78407;BME280;67692;51.074;-1.790;2024-02-15T10:24:21;100278.09;;;12.61;100.00
78407;BME280;67692;51.074;-1.790;2024-02-15T10:26:48;100281.38;;;12.63;100.00
78407;BME280;67692;51.074;-1.790;2024-02-15T10:29:17;100274.28;;;12.65;100.00
78407;BME280;67692;51.074;-1.790;2024-02-15T10:31:52;100267.84;;;12.69;100.00
78407;BME280;67692;51.074;-1.790;2024-02-15T10:34:20;100274.56;;;12.72;100.00
78407;BME280;67692;51.074;-1.790;2024-02-15T10:36:46;100270.91;;;12.74;100.00
78407;BME280;67692;51.074;-1.790;2024-02-15T10:39:14;100272.41;;;12.77;100.00
78407;BME280;67692;51.074;-1.790;2024-02-15T10:41:45;100271.06;;;12.82;100.00
78407;BME280;67692;51.074;-1.790;2024-02-15T10:44:17;100276.72;;;12.88;100.00
78407;BME280;67692;51.074;-1.790;2024-02-15T10:46:47;100280.56;;;12.93;100.00
78407;BME280;67692;51.074;-1.790;2024-02-15T10:49:17;100279.47;;;12.96;100.00
78407;BME280;67692;51.074;-1.790;2024-02-15T10:51:44;100285.81;;;13.03;100.00
78407;BME280;67692;51.074;-1.790;2024-02-15T10:54:23;100285.41;;;13.07;100.00
78407;BME280;67692;51.074;-1.790;2024-02-15T10:56:54;100267.47;;;13.04;100.00
78407;BME280;67692;51.074;-1.790;2024-02-15T10:59:31;100278.84;;;13.13;100.00
78407;BME280;67692;51.074;-1.790;2024-02-15T11:02:00;100281.44;;;13.13;100.00
78407;BME280;67692;51.074;-1.790;2024-02-15T11:04:31;100280.25;;;13.17;100.00
78407;BME280;67692;51.074;-1.790;2024-02-15T11:07:03;100271.50;;;13.18;100.00
78407;BME280;67692;51.074;-1.790;2024-02-15T11:09:31;100262.63;;;13.21;100.00
78407;BME280;67692;51.074;-1.790;2024-02-15T11:11:58;100258.25;;;13.21;100.00
78407;BME280;67692;51.074;-1.790;2024-02-15T11:14:29;100255.63;;;13.21;100.00
78407;BME280;67692;51.074;-1.790;2024-02-15T11:16:57;100252.22;;;13.21;100.00
78407;BME280;67692;51.074;-1.790;2024-02-15T11:19:43;100249.63;;;13.21;100.00
78407;BME280;67692;51.074;-1.790;2024-02-15T11:22:14;100250.72;;;13.18;100.00
78407;BME280;67692;51.074;-1.790;2024-02-15T11:24:48;100242.91;;;13.18;100.00
78407;BME280;67692;51.074;-1.790;2024-02-15T11:27:26;100243.84;;;13.17;100.00
78407;BME280;67692;51.074;-1.790;2024-02-15T11:29:55;100243.47;;;13.22;100.00
78407;BME280;67692;51.074;-1.790;2024-02-15T11:32:37;100248.78;;;13.20;100.00
78407;BME280;67692;51.074;-1.790;2024-02-15T11:35:06;100244.97;;;13.24;100.00
78407;BME280;67692;51.074;-1.790;2024-02-15T11:37:57;100242.09;;;13.27;100.00
78407;BME280;67692;51.074;-1.790;2024-02-15T11:41:02;100241.72;;;13.32;100.00
78407;BME280;67692;51.074;-1.790;2024-02-15T11:43:46;100230.63;;;13.39;100.00
78407;BME280;67692;51.074;-1.790;2024-02-15T11:46:17;100236.91;;;13.37;100.00
78407;BME280;67692;51.074;-1.790;2024-02-15T11:48:44;100231.56;;;13.38;100.00
78407;BME280;67692;51.074;-1.790;2024-02-15T11:51:24;100220.34;;;13.38;100.00
78407;BME280;67692;51.074;-1.790;2024-02-15T11:53:58;100229.66;;;13.40;100.00
78407;BME280;67692;51.074;-1.790;2024-02-15T11:56:25;100228.56;;;13.43;100.00
78407;BME280;67692;51.074;-1.790;2024-02-15T11:59:02;100233.63;;;13.45;100.00
78407;BME280;67692;51.074;-1.790;2024-02-15T12:01:33;100228.31;;;13.46;100.00
78407;BME280;67692;51.074;-1.790;2024-02-15T12:04:18;100237.63;;;13.49;100.00
78407;BME280;67692;51.074;-1.790;2024-02-15T12:07:03;100225.03;;;13.54;100.00
78407;BME280;67692;51.074;-1.790;2024-02-15T12:09:47;100217.91;;;13.56;100.00
78407;BME280;67692;51.074;-1.790;2024-02-15T12:12:31;100213.13;;;13.61;100.00
78407;BME280;67692;51.074;-1.790;2024-02-15T12:15:14;100213.81;;;13.63;100.00
78407;BME280;67692;51.074;-1.790;2024-02-15T12:20:51;100214.78;;;13.62;100.00
78407;BME280;67692;51.074;-1.790;2024-02-15T12:23:20;100208.47;;;13.64;100.00
78407;BME280;67692;51.074;-1.790;2024-02-15T12:25:51;100201.47;;;13.65;100.00
78407;BME280;67692;51.074;-1.790;2024-02-15T12:28:18;100200.66;;;13.64;100.00
78407;BME280;67692;51.074;-1.790;2024-02-15T12:30:44;100189.72;;;13.61;100.00
78407;BME280;67692;51.074;-1.790;2024-02-15T12:33:12;100179.31;;;13.61;100.00
78407;BME280;67692;51.074;-1.790;2024-02-15T12:35:45;100179.97;;;13.63;100.00
78407;BME280;67692;51.074;-1.790;2024-02-15T12:38:13;100179.84;;;13.64;100.00
78407;BME280;67692;51.074;-1.790;2024-02-15T12:40:42;100181.63;;;13.64;100.00
78407;BME280;67692;51.074;-1.790;2024-02-15T12:43:10;100177.38;;;13.63;100.00